Cleveland Hopkins International Airport Cleveland US
ICAO: KCLE
IATA: CLE
Category: Large
Scheduled Services: Yes

Elevation: 791 ft
TransAlt. 18000 ft.

Airport Communications:
APP:119.625
ATIS:127.85
CLNC DEL:125.05
DEP:118.15
GND:121.7
RDO:122.2
RAMP CON:129.17
TWR:120.9
UNICOM:122.95

KCLE Zoom In..

Runways:

(A) RW 06L length 9000 ft width 150 ft
ILS 111.55 / hdg 57

(B) RW 06R length 9956 ft width 150 ft
ILS 111.90 / hdg 57

(C) RW 10 length 6018 ft width 150 ft
---- / hdg 100

(D) RW 24L length 9956 ft width 150 ft
ILS 109.90 / hdg 237

(E) RW 24R length 9000 ft width 150 ft
ILS 111.55 / hdg 237

(F) RW 28 length 6018 ft width 150 ft
ILS 110.70 / hdg 280

Location; KCLE
Day. 22 / Time. 02.10 Zulu
* Altimeter: 30.07
* Temperature: 15° c. 59°f.
* Wind from: 020° Speed 05 kn.
Dewpoint: 14° c.
Visibility: 7 Statute Miles.
Clouds: Scattered 5000 ft.
Clouds: Overcast 11000 ft.
Conditions: Thunderstorm.

KCLE 220210Z 02005KT 7SM -TSRA SCT050CB OVC110 15/14 A3007 RMK AO2 LTG DSNT SE-SW TSE05B10 OCNL LTGICCGCC OHD TS OHD MOV E P0003 T01500139


Wind From 020°
Speed 05 kn.

 
 
jpsmedia.com for Web Design SOUNDCLOUD worldairports.se 2018   terms of use